.
WxDataArchive / Data Records for 2014-05-01
2014-04-30 May 2014 2014-05-02

Data Records for Thursday, 01 May 2014

Time	Temp	Chill	HIndex	Humid	Dewpt	 Wind 	HiWind	WindDir	Rain 	Barom
-----	----	-----	------	-----	-----	------	------	-------	-----	-----
00:00	47.0	47.0	47.0	69	37.4	0	1	270	0.00	29.824 
00:05	46.8	46.8	46.8	70	37.5	0	2	270	0.00	29.824 
00:10	46.7	46.7	46.7	70	37.4	1	4	270	0.00	29.824 
00:15	46.5	46.5	46.5	71	37.6	1	2	270	0.00	29.825 
00:20	46.4	46.4	46.4	71	37.5	1	3	270	0.00	29.825 
00:25	46.2	46.2	46.2	72	37.7	0	2	270	0.00	29.825 
00:30	46.1	46.1	46.1	72	37.6	0	1	270	0.00	29.824 
00:35	46.0	46.0	46.0	73	37.8	0	3	270	0.00	29.824 
00:40	45.8	45.8	45.8	73	37.6	0	3	270	0.00	29.824 
00:45	45.7	45.7	45.7	73	37.5	0	2	270	0.00	29.823 
00:50	45.5	45.5	45.5	74	37.7	0	2	270	0.00	29.823 
00:55	45.5	45.5	45.5	74	37.7	1	3	270	0.00	29.823 
01:00	45.4	45.4	45.4	73	37.3	1	3	270	0.00	29.826 
01:05	45.4	45.4	45.4	73	37.3	1	4	270	0.00	29.826 
01:10	45.2	45.2	45.2	73	37.1	0	4	248	0.00	29.826 
01:15	45.1	45.1	45.1	73	37.0	0	1	248	0.00	29.820 
01:20	44.9	44.9	44.9	73	36.8	0	1	248	0.00	29.820 
01:25	44.8	44.8	44.8	73	36.7	0	3	248	0.00	29.820 
01:30	44.8	44.8	44.8	72	36.3	0	2	248	0.00	29.819 
01:35	44.6	44.6	44.6	72	36.1	0	1	248	0.00	29.819 
01:40	44.5	44.5	44.5	72	36.0	0	1	248	0.00	29.819 
01:45	44.3	44.3	44.3	72	35.9	0	2	248	0.00	29.813 
01:50	44.2	44.2	44.2	73	36.1	0	1	248	0.00	29.813 
01:55	44.1	44.1	44.1	73	36.0	0	1	248	0.00	29.813 
02:00	44.1	44.1	44.1	73	36.0	0	1	248	0.00	29.813 
02:05	43.9	43.9	43.9	73	35.8	0	2	248	0.00	29.813 
02:10	43.8	43.8	43.8	73	35.7	0	2	248	0.00	29.813 
02:15	43.6	43.6	43.6	73	35.5	0	4	248	0.00	29.808 
02:20	43.6	43.6	43.6	73	35.5	0	1	248	0.00	29.808 
02:25	43.6	43.6	43.6	74	35.9	0	2	248	0.00	29.808 
02:30	43.6	43.6	43.6	74	35.9	0	2	248	0.00	29.808 
02:35	43.5	43.5	43.5	74	35.8	0	1	248	0.00	29.808 
02:40	43.5	43.5	43.5	74	35.8	0	2	248	0.00	29.808 
02:45	43.3	43.3	43.3	74	35.6	0	2	248	0.00	29.796 
02:50	43.3	43.3	43.3	74	35.6	0	2	248	0.00	29.796 
02:55	43.3	43.3	43.3	75	35.9	0	1	248	0.00	29.796 
03:00	43.3	43.3	43.3	75	35.9	0	2	248	0.00	29.794 
03:05	43.2	43.2	43.2	75	35.8	0	1	248	0.00	29.794 
03:10	43.2	43.2	43.2	75	35.8	0	1	248	0.00	29.794 
03:15	43.1	43.1	43.1	75	35.7	0	0	---	0.00	29.790 
03:20	42.9	42.9	42.9	76	35.9	0	1	248	0.00	29.790 
03:25	42.8	42.8	42.8	76	35.8	0	1	248	0.00	29.790 
03:30	42.5	42.5	42.5	77	35.8	0	0	---	0.00	29.794 
03:35	42.3	42.3	42.3	77	35.6	0	1	248	0.00	29.794 
03:40	42.2	42.2	42.2	78	35.8	0	1	248	0.00	29.794 
03:45	42.3	42.3	42.3	79	36.3	0	1	248	0.00	29.791 
03:50	42.6	42.6	42.6	79	36.6	0	2	248	0.00	29.791 
03:55	42.8	42.8	42.8	78	36.4	0	2	270	0.00	29.791 
04:00	42.8	42.8	42.8	78	36.4	0	2	270	0.00	29.783 
04:05	42.9	42.9	42.9	77	36.2	0	2	270	0.00	29.783 
04:10	42.8	42.8	42.8	78	36.4	0	1	270	0.00	29.783 
04:15	42.8	42.8	42.8	78	36.4	0	1	270	0.00	29.786 
04:20	42.9	42.9	42.9	78	36.5	0	1	270	0.00	29.786 
04:25	42.9	42.9	42.9	78	36.5	0	1	270	0.00	29.786 
04:30	43.1	43.1	43.1	79	37.0	0	2	270	0.00	29.783 
04:35	42.9	42.9	42.9	78	36.5	0	3	270	0.00	29.783 
04:40	42.8	42.8	42.8	78	36.4	0	1	270	0.00	29.783 
04:45	42.5	42.5	42.5	78	36.1	0	1	270	0.00	29.783 
04:50	42.2	42.2	42.2	79	36.2	0	0	---	0.00	29.783 
04:55	42.1	42.1	42.1	79	36.1	0	1	270	0.00	29.783 
05:00	41.9	41.9	41.9	80	36.2	0	1	270	0.00	29.781 
05:05	41.8	41.8	41.8	80	36.1	0	1	270	0.00	29.781 
05:10	41.8	41.8	41.8	81	36.4	0	1	270	0.00	29.781 
05:15	41.6	41.6	41.6	81	36.2	0	1	270	0.00	29.780 
05:20	41.6	41.6	41.6	81	36.2	0	1	270	0.00	29.780 
05:25	41.6	41.6	41.6	81	36.2	0	3	270	0.00	29.780 
05:30	41.8	41.8	41.8	81	36.4	0	3	270	0.00	29.780 
05:35	41.8	41.8	41.8	81	36.4	0	2	270	0.00	29.780 
05:40	41.9	41.9	41.9	81	36.5	0	2	270	0.00	29.780 
05:45	42.1	42.1	42.1	81	36.7	0	2	270	0.00	29.778 
05:50	42.1	42.1	42.1	81	36.7	0	1	270	0.00	29.778 
05:55	42.2	42.2	42.2	81	36.8	0	2	270	0.00	29.778 
06:00	42.2	42.2	42.2	80	36.5	0	2	270	0.00	29.778 
06:05	42.2	42.2	42.2	80	36.5	0	2	270	0.00	29.778 
06:10	42.2	42.2	42.2	80	36.5	0	2	270	0.00	29.778 
06:15	42.2	42.2	42.2	80	36.5	0	1	270	0.00	29.777 
06:20	42.2	42.2	42.2	80	36.5	0	3	270	0.00	29.777 
06:25	42.3	42.3	42.3	81	36.9	0	2	270	0.00	29.777 
06:30	42.5	42.5	42.5	80	36.8	0	3	270	0.00	29.777 
06:35	42.5	42.5	42.5	80	36.8	0	3	270	0.00	29.777 
06:40	42.6	42.6	42.6	80	36.9	0	3	248	0.00	29.777 
06:45	42.8	42.8	42.8	80	37.1	0	2	248	0.00	29.778 
06:50	42.8	42.8	42.8	80	37.1	0	2	248	0.00	29.778 
06:55	42.8	42.8	42.8	80	37.1	0	3	292	0.00	29.778 
07:00	42.6	42.6	42.6	80	36.9	0	3	270	0.00	29.777 
07:05	42.6	42.6	42.6	80	36.9	0	1	270	0.00	29.777 
07:10	42.6	42.6	42.6	80	36.9	0	3	270	0.00	29.777 
07:15	42.6	42.6	42.6	80	36.9	0	2	270	0.00	29.778 
07:20	42.5	42.5	42.5	80	36.8	0	2	270	0.00	29.778 
07:25	42.6	42.6	42.6	81	37.2	0	2	270	0.00	29.778 
07:30	42.8	42.8	42.8	81	37.4	0	3	270	0.00	29.777 
07:35	43.1	43.1	43.1	80	37.4	0	2	270	0.00	29.777 
07:40	43.5	43.5	43.5	80	37.7	0	3	270	0.00	29.777 
07:45	43.9	43.9	43.9	79	37.8	0	2	270	0.00	29.780 
07:50	44.3	44.3	44.3	78	37.9	0	3	270	0.00	29.780 
07:55	44.8	44.8	44.8	77	38.0	1	2	270	0.00	29.780 
08:00	45.1	45.1	45.1	77	38.3	1	3	292	0.00	29.785 
08:05	45.2	45.2	45.2	76	38.1	1	5	270	0.00	29.785 
08:10	45.4	45.4	45.4	76	38.3	1	3	248	0.00	29.785 
08:15	45.8	45.8	45.8	76	38.7	1	4	248	0.00	29.786 
08:20	46.4	46.4	46.4	74	38.6	1	4	248	0.00	29.786 
08:25	46.8	46.8	46.8	74	39.0	1	3	248	0.00	29.786 
08:30	47.1	47.1	47.1	72	38.5	1	4	248	0.00	29.787 
08:35	47.6	47.6	47.6	72	39.0	1	3	248	0.00	29.787 
08:40	47.9	47.9	47.9	71	39.0	1	4	248	0.00	29.787 
08:45	47.9	47.9	47.9	71	39.0	1	6	248	0.00	29.781 
08:50	48.2	48.2	48.2	71	39.2	0	2	248	0.00	29.781 
08:55	48.8	48.8	48.8	71	39.8	1	4	248	0.00	29.781 
09:00	49.1	49.1	49.1	68	39.0	2	5	248	0.00	29.786 
09:05	48.8	48.8	48.8	69	39.1	2	5	248	0.00	29.786 
09:10	48.3	48.3	48.3	70	39.0	2	6	248	0.00	29.786 
09:15	48.3	48.3	48.3	70	39.0	1	4	248	0.00	29.788 
09:20	48.3	48.3	48.3	70	39.0	1	5	248	0.00	29.788 
09:25	48.9	48.9	48.9	70	39.6	1	4	248	0.00	29.788 
09:30	49.4	49.4	49.4	68	39.3	2	5	248	0.00	29.785 
09:35	49.6	49.6	49.6	65	38.3	2	4	248	0.00	29.785 
09:40	49.6	49.6	49.6	65	38.3	2	4	248	0.00	29.785 
09:45	49.6	49.6	49.6	65	38.3	1	6	248	0.00	29.780 
09:50	49.6	49.6	49.6	66	38.7	1	4	248	0.00	29.780 
09:55	49.8	49.8	49.8	65	38.5	1	6	248	0.00	29.780 
10:00	49.2	49.2	49.2	64	37.5	3	8	248	0.00	29.780 
10:05	49.2	49.2	49.2	66	38.3	1	6	248	0.00	29.780 
10:10	49.2	49.2	49.2	65	37.9	2	9	248	0.00	29.780 
10:15	49.1	49.1	49.1	65	37.8	2	6	248	0.00	29.777 
10:20	49.8	49.8	49.8	65	38.5	2	6	248	0.00	29.777 
10:25	49.8	49.8	49.8	63	37.7	3	7	248	0.00	29.777 
10:30	50.2	50.2	50.2	64	38.5	1	6	248	0.00	29.772 
10:35	51.0	51.0	51.0	63	38.9	1	4	270	0.00	29.772 
10:40	50.8	50.8	50.8	61	37.8	2	5	248	0.00	29.772 
10:45	50.5	50.5	50.5	61	37.6	2	4	248	0.00	29.771 
10:50	50.1	50.1	50.1	59	36.3	2	7	248	0.00	29.771 
10:55	49.8	49.8	49.8	60	36.5	3	6	248	0.00	29.771 
11:00	49.8	49.8	49.8	61	36.9	3	9	248	0.00	29.773 
11:05	50.1	50.1	50.1	61	37.2	2	6	248	0.00	29.773 
11:10	49.9	49.9	49.9	60	36.6	3	10	248	0.00	29.773 
11:15	49.9	49.9	49.9	60	36.6	3	6	248	0.00	29.776 
11:20	49.6	49.6	49.6	59	35.9	3	9	248	0.00	29.776 
11:25	49.5	49.5	49.5	60	36.2	3	8	248	0.00	29.776 
11:30	49.5	49.5	49.5	60	36.2	2	7	248	0.00	29.779 
11:35	49.5	49.5	49.5	59	35.8	3	9	248	0.00	29.779 
11:40	49.5	49.5	49.5	60	36.2	3	6	248	0.00	29.779 
11:45	49.6	49.6	49.6	59	35.9	2	6	248	0.00	29.779 
11:50	49.8	49.8	49.8	61	36.9	1	4	248	0.00	29.779 
11:55	50.1	50.1	50.1	60	36.8	2	6	248	0.00	29.779 
12:00	50.7	50.7	50.7	58	36.5	2	6	270	0.00	29.780 
12:05	51.0	51.0	51.0	57	36.3	3	7	248	0.00	29.780 
12:10	51.0	51.0	51.0	56	35.9	3	9	248	0.00	29.780 
12:15	50.7	50.7	50.7	57	36.0	3	7	248	0.00	29.782 
12:20	50.5	50.5	50.5	59	36.7	2	7	248	0.00	29.782 
12:25	50.5	50.5	50.5	58	36.3	2	9	248	0.00	29.782 
12:30	50.2	50.2	50.2	58	36.0	2	7	270	0.00	29.787 
12:35	49.9	49.9	49.9	60	36.6	2	6	248	0.00	29.787 
12:40	50.1	50.1	50.1	58	35.9	3	9	248	0.00	29.787 
12:45	49.9	48.8	49.9	58	35.7	4	10	248	0.00	29.791 
12:50	49.9	49.9	49.9	59	36.1	2	7	248	0.00	29.791 
12:55	50.4	50.4	50.4	59	36.6	2	7	248	0.00	29.791 
13:00	50.8	50.8	50.8	57	36.1	2	6	248	0.00	29.786 
13:05	50.8	50.8	50.8	57	36.1	2	5	270	0.00	29.786 
13:10	51.0	51.0	51.0	55	35.4	2	6	248	0.00	29.786 
13:15	51.1	51.1	51.1	56	36.0	2	5	248	0.00	29.787 
13:20	51.1	51.1	51.1	56	36.0	2	7	248	0.00	29.787 
13:25	50.8	50.8	50.8	56	35.7	3	7	248	0.00	29.787 
13:30	50.8	50.8	50.8	57	36.1	2	6	248	0.00	29.781 
13:35	51.1	51.1	51.1	56	36.0	3	11	248	0.00	29.781 
13:40	51.1	51.1	51.1	55	35.5	3	10	248	0.00	29.781 
13:45	51.1	51.1	51.1	55	35.5	3	7	248	0.00	29.781 
13:50	51.1	51.1	51.1	56	36.0	3	9	248	0.00	29.781 
13:55	51.1	51.1	51.1	56	36.0	3	10	248	0.00	29.781 
14:00	51.0	51.0	51.0	56	35.9	3	8	248	0.00	29.783 
14:05	50.5	50.5	50.5	57	35.8	3	9	248	0.00	29.783 
14:10	50.4	50.4	50.4	58	36.2	3	7	248	0.00	29.783 
14:15	50.5	50.5	50.5	56	35.4	3	6	248	0.00	29.785 
14:20	50.5	50.5	50.5	57	35.8	3	7	248	0.00	29.785 
14:25	50.5	50.5	50.5	57	35.8	2	6	248	0.00	29.785 
14:30	50.4	50.4	50.4	57	35.7	3	6	248	0.00	29.790 
14:35	50.2	50.2	50.2	58	36.0	3	7	248	0.00	29.790 
14:40	50.1	50.1	50.1	58	35.9	2	9	248	0.00	29.790 
14:45	50.2	50.2	50.2	59	36.4	1	5	248	0.00	29.794 
14:50	50.5	50.5	50.5	60	37.1	1	4	248	0.00	29.794 
14:55	50.8	50.8	50.8	59	37.0	2	6	248	0.00	29.794 
15:00	51.0	51.0	51.0	58	36.7	2	10	248	0.00	29.790 
15:05	51.0	51.0	51.0	56	35.9	3	9	270	0.00	29.790 
15:10	50.8	50.8	50.8	57	36.1	2	7	248	0.00	29.790 
15:15	51.0	51.0	51.0	57	36.3	2	5	248	0.00	29.789 
15:20	51.3	51.3	51.3	57	36.6	2	5	248	0.00	29.789 
15:25	51.6	51.6	51.6	56	36.4	4	10	248	0.00	29.789 
15:30	51.7	51.7	51.7	55	36.1	4	10	248	0.00	29.789 
15:35	51.9	51.9	51.9	55	36.2	4	12	248	0.00	29.789 
15:40	52.0	52.0	52.0	56	36.8	1	6	270	0.00	29.789 
15:45	52.0	52.0	52.0	56	36.8	1	3	270	0.00	29.791 
15:50	51.7	51.7	51.7	54	35.6	3	13	248	0.00	29.791 
15:55	51.4	51.4	51.4	55	35.8	2	13	248	0.00	29.791 
16:00	51.1	51.1	51.1	55	35.5	2	7	248	0.00	29.793 
16:05	50.8	50.8	50.8	56	35.7	3	10	248	0.00	29.793 
16:10	50.5	50.5	50.5	57	35.8	3	10	248	0.00	29.793 
16:15	50.4	50.4	50.4	57	35.7	2	6	248	0.00	29.798 
16:20	50.4	50.4	50.4	58	36.2	2	6	248	0.00	29.798 
16:25	50.2	50.2	50.2	57	35.6	2	7	248	0.00	29.798 
16:30	50.1	50.1	50.1	58	35.9	3	9	248	0.00	29.800 
16:35	49.9	49.9	49.9	58	35.7	2	7	248	0.00	29.800 
16:40	49.8	49.8	49.8	58	35.6	3	11	248	0.00	29.800 
16:45	49.6	49.6	49.6	59	35.9	2	9	248	0.00	29.803 
16:50	49.6	49.6	49.6	60	36.3	2	6	248	0.00	29.803 
16:55	49.8	49.8	49.8	59	36.1	3	12	248	0.00	29.803 
17:00	49.8	49.8	49.8	59	36.1	2	6	248	0.00	29.804 
17:05	49.6	49.6	49.6	60	36.3	2	6	248	0.00	29.804 
17:10	49.6	49.6	49.6	59	35.9	2	6	248	0.00	29.804 
17:15	49.5	49.5	49.5	60	36.2	1	5	248	0.00	29.806 
17:20	49.5	49.5	49.5	60	36.2	2	4	270	0.00	29.806 
17:25	49.5	48.3	49.5	59	35.8	4	10	248	0.00	29.806 
17:30	49.5	49.5	49.5	59	35.8	3	8	248	0.00	29.808 
17:35	49.5	49.5	49.5	60	36.2	2	10	248	0.00	29.808 
17:40	49.5	49.5	49.5	60	36.2	2	7	248	0.00	29.808 
17:45	49.5	49.5	49.5	60	36.2	2	6	270	0.00	29.808 
17:50	49.5	49.5	49.5	60	36.2	3	7	248	0.00	29.808 
17:55	49.5	49.5	49.5	61	36.6	2	6	248	0.00	29.808 
18:00	49.6	49.6	49.6	61	36.7	2	6	248	0.00	29.808 
18:05	49.6	48.4	49.6	61	36.7	4	12	248	0.00	29.808 
18:10	49.5	49.5	49.5	62	37.0	3	9	248	0.00	29.808 
18:15	49.4	49.4	49.4	62	36.9	3	6	248	0.00	29.808 
18:20	49.4	49.4	49.4	62	36.9	1	4	248	0.00	29.808 
18:25	49.5	49.5	49.5	61	36.6	2	10	248	0.00	29.808 
18:30	49.5	49.5	49.5	61	36.6	2	7	248	0.00	29.808 
18:35	49.5	49.5	49.5	62	37.0	2	7	248	0.00	29.808 
18:40	49.4	49.4	49.4	61	36.5	3	6	248	0.00	29.808 
18:45	49.4	49.4	49.4	62	36.9	3	10	248	0.00	29.808 
18:50	49.2	49.2	49.2	62	36.7	3	7	248	0.00	29.808 
18:55	49.2	49.2	49.2	62	36.7	3	10	248	0.00	29.808 
19:00	49.1	49.1	49.1	63	37.1	3	12	248	0.00	29.808 
19:05	48.9	48.9	48.9	63	36.9	3	10	248	0.00	29.808 
19:10	48.8	48.8	48.8	63	36.8	2	6	248	0.00	29.808 
19:15	48.8	48.8	48.8	63	36.8	3	11	270	0.00	29.808 
19:20	48.8	47.5	48.8	64	37.2	4	11	248	0.00	29.808 
19:25	48.8	48.8	48.8	64	37.2	3	6	248	0.00	29.808 
19:30	48.6	48.6	48.6	65	37.4	3	7	248	0.00	29.809 
19:35	48.5	48.5	48.5	66	37.7	2	6	270	0.00	29.809 
19:40	48.3	48.3	48.3	66	37.5	2	5	248	0.00	29.809 
19:45	48.3	48.3	48.3	66	37.5	2	6	248	0.00	29.812 
19:50	48.3	48.3	48.3	66	37.5	1	3	248	0.00	29.812 
19:55	48.3	48.3	48.3	67	37.9	1	4	248	0.00	29.812 
20:00	48.3	48.3	48.3	67	37.9	1	5	248	0.00	29.814 
20:05	48.3	48.3	48.3	67	37.9	2	5	248	0.00	29.814 
20:10	48.3	48.3	48.3	67	37.9	1	4	248	0.00	29.814 
20:15	48.3	48.3	48.3	67	37.9	1	5	225	0.00	29.818 
20:20	48.3	48.3	48.3	68	38.2	1	4	225	0.00	29.818 
20:25	48.0	48.0	48.0	72	39.4	3	7	248	0.00	29.818 
20:30	47.6	47.6	47.6	77	40.8	2	4	248	0.00	29.824 
20:35	47.0	47.0	47.0	78	40.5	1	5	248	0.00	29.824 
20:40	46.5	46.5	46.5	79	40.3	2	9	248	0.00	29.824 
20:45	46.4	46.4	46.4	80	40.6	2	6	248	0.00	29.827 
20:50	46.2	46.2	46.2	79	40.1	2	6	248	0.00	29.827 
20:55	46.4	46.4	46.4	79	40.2	2	7	270	0.00	29.827 
21:00	46.4	46.4	46.4	78	39.9	1	5	248	0.00	29.822 
21:05	46.4	46.4	46.4	78	39.9	2	6	248	0.00	29.822 
21:10	46.5	46.5	46.5	77	39.7	2	5	248	0.00	29.822 
21:15	46.5	46.5	46.5	77	39.7	1	4	248	0.00	29.820 
21:20	46.5	46.5	46.5	77	39.7	1	6	248	0.00	29.820 
21:25	46.5	46.5	46.5	77	39.7	2	6	248	0.00	29.820 
21:30	46.7	46.7	46.7	76	39.5	2	5	248	0.00	29.820 
21:35	46.7	46.7	46.7	76	39.5	1	4	248	0.00	29.820 
21:40	46.7	46.7	46.7	75	39.2	2	5	248	0.00	29.820 
21:45	46.8	46.8	46.8	75	39.3	1	3	248	0.00	29.822 
21:50	46.8	46.8	46.8	75	39.3	2	4	248	0.00	29.822 
21:55	46.8	46.8	46.8	74	39.0	2	7	248	0.00	29.822 
22:00	47.0	47.0	47.0	74	39.1	1	6	248	0.00	29.823 
22:05	47.0	47.0	47.0	74	39.1	2	4	270	0.00	29.823 
22:10	47.0	47.0	47.0	73	38.8	2	5	248	0.00	29.823 
22:15	47.1	47.1	47.1	73	38.9	2	5	248	0.00	29.825 
22:20	47.1	47.1	47.1	73	38.9	1	6	248	0.00	29.825 
22:25	47.1	47.1	47.1	72	38.5	2	7	248	0.00	29.825 
22:30	47.3	47.3	47.3	73	39.1	1	3	248	0.00	29.822 
22:35	47.3	45.8	47.3	72	38.7	4	9	248	0.00	29.822 
22:40	47.3	47.3	47.3	72	38.7	2	6	248	0.00	29.822 
22:45	47.3	47.3	47.3	72	38.7	2	5	248	0.00	29.822 
22:50	47.3	47.3	47.3	73	39.1	2	5	248	0.00	29.822 
22:55	47.3	47.3	47.3	73	39.1	2	6	248	0.00	29.822 
23:00	47.3	47.3	47.3	73	39.1	2	7	225	0.00	29.822 
23:05	47.3	47.3	47.3	73	39.1	2	6	248	0.00	29.822 
23:10	47.3	47.3	47.3	74	39.4	2	5	248	0.00	29.822 
23:15	47.3	47.3	47.3	74	39.4	2	7	248	0.00	29.820 
23:20	47.3	47.3	47.3	74	39.4	1	6	248	0.00	29.820 
23:25	47.1	47.1	47.1	75	39.6	2	6	248	0.00	29.820 
23:30	47.1	47.1	47.1	75	39.6	3	6	248	0.00	29.818 
23:35	47.1	47.1	47.1	75	39.6	3	7	248	0.00	29.818 
23:40	47.0	47.0	47.0	76	39.8	3	7	248	0.00	29.818 
23:45	47.0	47.0	47.0	76	39.8	1	4	270	0.00	29.816 
23:50	47.0	47.0	47.0	76	39.8	1	6	248	0.00	29.816 
23:55	47.0	47.0	47.0	77	40.2	2	5	248	0.00	29.816 

CoCoRaHS
IN-AL-39
A2 Web Hosting
Creative Commons License
GoDaddy
search engine by freefind advanced

loaded 2018-11-12 15:15:02 • last modified 2010-11-18 10:43:29
Privacy PolicyDisclaimer
• wx.awcolley.com is powered by PmWiki v.2002016 •
• all content (unless otherwise noted) © 2018 A W Colley